Time;durP1;ratioP1;P1;durP2;ratioP2;P2;SDS_P1;SDS_P2;PMS_P1;PMS_P2;Temp;Humidity;BMP_temperature;BMP_pressure;BME280_temperature;BME280_humidity;BME280_pressure;Samples;Min_cycle;Max_cycle;Signal;HPM_P1;HPM_P2
2023/07/08 00:00:19;;;;;;;4.25;3.10;;;;;;;17.09;89.70;101991.97;4974404;28;20037;-74
2023/07/08 00:03:05;;;;;;;5.13;3.20;;;;;;;17.06;89.25;101989.47;4974353;28;20038;-74
2023/07/08 00:05:55;;;;;;;5.38;3.03;;;;;;;17.04;89.63;101985.13;4975850;28;20064;-74
2023/07/08 00:08:40;;;;;;;6.25;3.08;;;;;;;17.02;89.47;101984.38;4971118;28;20109;-74
2023/07/08 00:11:28;;;;;;;4.25;3.05;;;;;;;16.99;89.89;101979.16;4983176;28;20178;-74
2023/07/08 00:14:21;;;;;;;5.45;3.58;;;;;;;16.96;90.51;101970.34;4977991;28;20154;-74
2023/07/08 00:17:11;;;;;;;5.25;3.42;;;;;;;16.95;90.16;101970.44;4989845;28;20052;-74
2023/07/08 00:19:58;;;;;;;5.30;3.20;;;;;;;16.94;90.60;101966.91;4978780;28;20181;-74
2023/07/08 00:22:46;;;;;;;6.43;3.67;;;;;;;16.91;90.67;101972.44;4968649;28;22135;-74
2023/07/08 00:25:32;;;;;;;7.30;3.20;;;;;;;16.89;90.49;101976.13;4980039;28;20359;-74
2023/07/08 00:28:21;;;;;;;6.35;3.25;;;;;;;16.86;90.80;101965.59;4988530;28;20413;-73
2023/07/08 00:31:09;;;;;;;4.85;3.10;;;;;;;16.83;90.98;101975.50;4977887;28;20253;-74
2023/07/08 00:33:58;;;;;;;6.70;3.28;;;;;;;16.80;91.04;101972.13;4989778;28;20036;-73
2023/07/08 00:36:44;;;;;;;4.82;2.92;;;;;;;16.77;91.34;101970.50;4979150;28;20413;-74
2023/07/08 00:39:30;;;;;;;4.90;3.28;;;;;;;16.74;91.52;101975.13;4985588;28;20049;-74
2023/07/08 00:42:18;;;;;;;5.22;3.25;;;;;;;16.72;91.33;101977.88;4986982;28;20038;-74
2023/07/08 00:45:15;;;;;;;6.45;3.30;;;;;;;16.71;92.30;101976.16;4984581;28;20097;-74
2023/07/08 00:48:23;;;;;;;6.40;3.45;;;;;;;16.72;93.83;101977.03;4969493;28;20449;-74
2023/07/08 00:51:12;;;;;;;6.35;3.75;;;;;;;16.70;92.89;101964.63;4984629;28;20026;-74
2023/07/08 00:53:58;;;;;;;5.60;3.25;;;;;;;16.70;93.07;101969.09;4984925;28;20037;-73
2023/07/08 00:56:57;;;;;;;5.85;3.75;;;;;;;16.69;93.69;101965.53;4984241;28;20050;-74
2023/07/08 00:59:48;;;;;;;5.57;3.35;;;;;;;16.67;93.18;101969.28;4972596;28;20038;-73
2023/07/08 01:02:48;;;;;;;6.20;3.75;;;;;;;16.67;93.61;101966.59;4984142;28;20042;-73
2023/07/08 01:05:34;;;;;;;6.55;3.40;;;;;;;16.64;93.46;101964.94;4989656;28;20042;-74
2023/07/08 01:08:28;;;;;;;6.05;3.60;;;;;;;16.63;93.61;101957.88;4986459;28;20069;-74
2023/07/08 01:11:14;;;;;;;5.65;3.40;;;;;;;16.62;94.02;101963.31;4984415;28;20062;-73
2023/07/08 01:14:01;;;;;;;6.07;3.42;;;;;;;16.60;94.50;101959.84;4984815;28;20536;-73
2023/07/08 01:16:49;;;;;;;7.65;3.30;;;;;;;16.58;93.95;101954.59;4975471;28;20041;-74
2023/07/08 01:19:38;;;;;;;6.22;3.35;;;;;;;16.58;94.47;101959.06;4983833;28;20034;-74
2023/07/08 01:22:23;;;;;;;5.70;3.13;;;;;;;16.55;95.02;101950.25;4986858;28;20058;-73
2023/07/08 01:25:10;;;;;;;6.70;3.70;;;;;;;16.55;94.69;101947.59;4984551;28;20054;-74
2023/07/08 01:27:56;;;;;;;6.35;3.08;;;;;;;16.53;94.91;101940.59;4970835;28;20703;-73
2023/07/08 01:30:43;;;;;;;6.55;3.63;;;;;;;16.52;95.10;101942.38;4971163;28;21776;-73
2023/07/08 01:33:29;;;;;;;5.45;3.47;;;;;;;16.52;95.11;101946.88;4960071;28;20117;-73
2023/07/08 01:36:18;;;;;;;6.43;3.55;;;;;;;16.50;95.60;101940.78;4985774;28;20124;-73
2023/07/08 01:39:03;;;;;;;6.70;3.70;;;;;;;16.50;95.42;101941.63;4969519;28;20038;-73
2023/07/08 01:41:49;;;;;;;6.13;3.25;;;;;;;16.49;95.41;101939.00;4983986;28;21068;-73
2023/07/08 01:44:36;;;;;;;6.03;3.50;;;;;;;16.47;95.51;101938.25;4970757;28;22027;-73
2023/07/08 01:47:22;;;;;;;6.05;3.15;;;;;;;16.48;95.77;101940.84;4983720;28;20081;-73
2023/07/08 01:50:09;;;;;;;5.75;3.30;;;;;;;16.48;95.97;101945.31;4985112;28;20574;-73
2023/07/08 01:53:00;;;;;;;6.43;4.00;;;;;;;16.45;96.07;101932.13;4966929;28;20037;-73
2023/07/08 01:55:45;;;;;;;5.13;3.30;;;;;;;16.45;95.97;101942.81;4983999;28;20037;-73
2023/07/08 01:58:31;;;;;;;6.03;3.60;;;;;;;16.42;96.59;101939.38;4969476;28;20456;-75
2023/07/08 02:01:17;;;;;;;5.78;3.50;;;;;;;16.40;96.57;101929.69;4985449;28;20125;-74
2023/07/08 02:04:03;;;;;;;6.32;3.75;;;;;;;16.40;96.83;101930.56;4983478;28;20045;-73
2023/07/08 02:06:56;;;;;;;7.75;3.90;;;;;;;16.37;97.20;101919.16;4983543;28;20682;-74
2023/07/08 02:09:42;;;;;;;4.63;3.35;;;;;;;16.36;97.10;101921.00;4983900;28;20364;-73
2023/07/08 02:12:27;;;;;;;7.53;3.97;;;;;;;16.34;96.88;101917.50;4983521;28;20034;-74
2023/07/08 02:15:19;;;;;;;5.47;3.83;;;;;;;16.32;97.07;101916.75;4983690;28;20615;-73
2023/07/08 02:18:05;;;;;;;6.03;3.42;;;;;;;16.30;97.55;101918.63;4974548;28;20132;-73
2023/07/08 02:20:50;;;;;;;5.03;3.70;;;;;;;16.27;97.73;101914.31;4983400;28;20037;-73
2023/07/08 02:23:36;;;;;;;4.38;3.22;;;;;;;16.25;98.09;101905.50;4983897;28;20135;-73
2023/07/08 02:26:22;;;;;;;5.00;3.35;;;;;;;16.24;98.54;101911.78;4982603;28;21027;-73
2023/07/08 02:29:08;;;;;;;6.72;3.85;;;;;;;16.22;98.79;101904.78;4982450;28;20056;-73
2023/07/08 02:31:54;;;;;;;7.35;3.75;;;;;;;16.20;98.71;101902.22;4977731;28;20045;-73
2023/07/08 02:34:39;;;;;;;6.88;3.95;;;;;;;16.17;99.22;101897.03;4974733;28;20042;-74
2023/07/08 02:37:25;;;;;;;5.45;3.88;;;;;;;16.12;98.85;101894.59;4984692;28;20125;-74
2023/07/08 02:40:14;;;;;;;6.10;3.53;;;;;;;16.10;98.87;101906.31;4984544;28;20053;-74
2023/07/08 02:43:00;;;;;;;6.05;3.72;;;;;;;16.03;99.47;101897.75;4983773;28;20042;-73
2023/07/08 02:45:49;;;;;;;4.72;3.80;;;;;;;15.98;100.00;101889.13;4985372;28;20125;-74
2023/07/08 02:48:35;;;;;;;6.60;3.75;;;;;;;15.94;100.00;101875.06;4974684;28;21286;-72
2023/07/08 02:51:21;;;;;;;6.50;3.70;;;;;;;15.92;100.00;101887.66;4983326;28;20500;-72
2023/07/08 02:54:07;;;;;;;5.13;3.83;;;;;;;15.86;100.00;101883.44;4984136;28;20038;-72
2023/07/08 02:56:53;;;;;;;6.82;4.03;;;;;;;15.83;100.00;101875.59;4980823;28;20039;-72
2023/07/08 02:59:39;;;;;;;7.05;4.32;;;;;;;15.78;100.00;101882.97;4982198;28;20791;-73
2023/07/08 03:02:26;;;;;;;6.45;4.05;;;;;;;15.73;100.00;101880.53;4982942;28;20042;-72
2023/07/08 03:05:14;;;;;;;7.88;4.10;;;;;;;15.70;100.00;101870.00;4970924;28;20042;-73
2023/07/08 03:08:03;;;;;;;6.95;4.10;;;;;;;15.70;100.00;101874.50;4974722;28;20061;-73
2023/07/08 03:10:58;;;;;;;5.93;4.10;;;;;;;15.68;100.00;101873.72;4982270;28;20619;-73
2023/07/08 03:13:44;;;;;;;6.85;4.28;;;;;;;15.66;100.00;101868.44;4960825;28;20039;-73
2023/07/08 03:16:30;;;;;;;5.70;4.38;;;;;;;15.62;100.00;101866.84;4983073;28;20663;-74
2023/07/08 03:19:16;;;;;;;7.28;4.25;;;;;;;15.63;100.00;101865.06;4981472;28;20042;-74
2023/07/08 03:22:05;;;;;;;6.70;4.25;;;;;;;15.57;100.00;101861.75;4985239;28;20049;-74
2023/07/08 03:24:50;;;;;;;6.28;4.10;;;;;;;15.55;100.00;101863.66;4982735;28;20042;-74
2023/07/08 03:27:36;;;;;;;7.35;4.57;;;;;;;15.50;100.00;101865.69;4969959;28;20042;-73
2023/07/08 03:30:22;;;;;;;6.78;4.65;;;;;;;15.45;100.00;101865.03;4985221;28;20125;-73
2023/07/08 03:33:08;;;;;;;6.10;4.25;;;;;;;15.39;100.00;101858.22;4986537;28;20496;-73
2023/07/08 03:35:55;;;;;;;7.45;4.60;;;;;;;15.34;100.00;101852.25;4982991;28;20069;-73
2023/07/08 03:38:40;;;;;;;6.07;4.30;;;;;;;15.30;100.00;101847.97;4974014;28;20481;-73
2023/07/08 03:41:26;;;;;;;6.72;4.70;;;;;;;15.25;100.00;101850.03;4984792;28;20046;-73
2023/07/08 03:44:12;;;;;;;6.80;4.47;;;;;;;15.19;100.00;101851.19;4985088;28;20131;-73
2023/07/08 03:46:58;;;;;;;9.07;4.40;;;;;;;15.14;100.00;101843.41;4978033;28;20576;-73
2023/07/08 03:49:44;;;;;;;6.72;4.20;;;;;;;15.13;100.00;101840.81;4959166;28;20042;-73
2023/07/08 03:52:29;;;;;;;6.95;4.22;;;;;;;15.12;100.00;101845.31;4974181;28;20164;-74
2023/07/08 03:55:16;;;;;;;7.18;4.68;;;;;;;15.12;100.00;101841.75;4983838;28;20036;-73
2023/07/08 03:58:02;;;;;;;8.15;5.05;;;;;;;15.13;100.00;101847.03;4984517;28;20599;-73
2023/07/08 04:00:48;;;;;;;8.80;4.30;;;;;;;15.13;100.00;101854.16;4983060;28;20068;-74
2023/07/08 04:03:34;;;;;;;7.13;4.70;;;;;;;15.15;100.00;101854.97;4968733;28;20113;-73
2023/07/08 04:06:20;;;;;;;7.75;4.72;;;;;;;15.15;100.00;101852.28;4982533;28;20606;-73
2023/07/08 04:09:06;;;;;;;7.82;5.00;;;;;;;15.16;100.00;101848.69;4982591;28;20043;-72
2023/07/08 04:11:53;;;;;;;7.90;4.30;;;;;;;15.16;100.00;101854.00;4985761;28;20558;-72
2023/07/08 04:14:42;;;;;;;7.57;4.63;;;;;;;15.15;100.00;101850.47;4988083;28;20046;-73
2023/07/08 04:17:28;;;;;;;8.13;4.88;;;;;;;15.16;100.00;101840.69;4985552;28;20042;-72
2023/07/08 04:20:15;;;;;;;6.75;4.63;;;;;;;15.17;100.00;101837.94;4987534;28;20508;-73
2023/07/08 04:23:01;;;;;;;6.05;4.53;;;;;;;15.17;100.00;101835.28;4988695;28;20041;-73
2023/07/08 04:25:53;;;;;;;8.43;4.63;;;;;;;15.19;100.00;101838.72;4978942;28;20053;-72
2023/07/08 04:28:39;;;;;;;6.72;4.53;;;;;;;15.25;100.00;101848.22;4978773;28;20034;-72
2023/07/08 04:31:24;;;;;;;8.00;4.65;;;;;;;15.27;100.00;101838.34;4989915;28;20046;-73
2023/07/08 04:34:10;;;;;;;8.02;4.72;;;;;;;15.31;100.00;101842.59;4983121;28;20548;-73
2023/07/08 04:36:56;;;;;;;7.15;4.60;;;;;;;15.36;100.00;101841.50;4990061;28;20497;-73
2023/07/08 04:39:41;;;;;;;6.72;4.03;;;;;;;15.40;100.00;101848.38;4973445;28;21245;-72
2023/07/08 04:42:28;;;;;;;7.45;4.95;;;;;;;15.45;100.00;101851.69;4989648;28;20504;-73
2023/07/08 04:45:16;;;;;;;11.45;4.97;;;;;;;15.50;100.00;101843.47;4989556;28;20046;-73
2023/07/08 04:48:08;;;;;;;7.00;4.93;;;;;;;15.54;100.00;101851.25;4962343;28;20045;-73
2023/07/08 04:50:54;;;;;;;7.15;4.38;;;;;;;15.58;100.00;101851.97;4987950;28;20038;-73
2023/07/08 04:53:43;;;;;;;6.32;4.45;;;;;;;15.62;100.00;101853.50;4979374;28;20034;-72
2023/07/08 04:56:43;;;;;;;7.32;4.93;;;;;;;15.69;100.00;101868.28;4988476;28;20037;-73
2023/07/08 04:59:34;;;;;;;6.95;5.03;;;;;;;15.75;100.00;101872.47;4987905;28;20137;-73
2023/07/08 05:02:19;;;;;;;8.95;4.82;;;;;;;15.83;100.00;101872.03;4987568;28;20050;-73
2023/07/08 05:05:06;;;;;;;11.02;5.20;;;;;;;15.92;100.00;101868.06;4979880;28;20166;-73
2023/07/08 05:07:51;;;;;;;7.28;4.50;;;;;;;16.01;100.00;101871.13;4978329;28;20042;-72
2023/07/08 05:10:38;;;;;;;7.53;5.00;;;;;;;16.09;100.00;101870.75;4986930;28;20053;-74
2023/07/08 05:13:24;;;;;;;8.00;4.60;;;;;;;16.18;100.00;101871.19;4973872;28;20052;-73
2023/07/08 05:16:10;;;;;;;6.32;4.65;;;;;;;16.28;100.00;101873.28;4973538;28;20042;-73
2023/07/08 05:18:56;;;;;;;6.53;4.55;;;;;;;16.37;100.00;101869.28;4972324;28;20049;-73
2023/07/08 05:21:42;;;;;;;7.78;4.68;;;;;;;16.47;100.00;101874.09;4987702;28;20057;-73
2023/07/08 05:24:28;;;;;;;6.30;4.35;;;;;;;16.55;100.00;101853.16;4987187;28;20947;-74
2023/07/08 05:27:16;;;;;;;5.65;3.97;;;;;;;16.64;100.00;101866.03;4989141;28;20046;-74
2023/07/08 05:30:04;;;;;;;6.75;3.88;;;;;;;16.76;100.00;101860.94;4986631;28;20038;-73
2023/07/08 05:32:49;;;;;;;7.72;4.55;;;;;;;16.83;100.00;101863.19;4973660;28;20034;-73
2023/07/08 05:35:35;;;;;;;6.53;4.13;;;;;;;16.92;100.00;101866.28;4976615;28;20243;-73
2023/07/08 05:38:21;;;;;;;6.80;4.80;;;;;;;17.02;100.00;101862.19;4987533;28;20103;-73
2023/07/08 05:41:07;;;;;;;8.10;4.55;;;;;;;17.12;100.00;101851.84;4978654;28;20048;-74
2023/07/08 05:43:53;;;;;;;6.82;4.13;;;;;;;17.26;100.00;101853.69;4988635;28;20126;-73
2023/07/08 05:46:39;;;;;;;6.43;4.38;;;;;;;17.37;100.00;101851.28;4988987;28;20109;-73
2023/07/08 05:49:24;;;;;;;5.35;3.63;;;;;;;17.50;100.00;101848.72;4988001;28;20072;-74
2023/07/08 05:52:11;;;;;;;4.63;3.53;;;;;;;17.69;100.00;101846.78;4989138;28;20034;-73
2023/07/08 05:55:00;;;;;;;5.78;3.95;;;;;;;17.89;100.00;101841.09;4986698;28;20045;-73
2023/07/08 05:57:45;;;;;;;4.70;3.50;;;;;;;18.10;100.00;101837.22;4978500;28;20125;-73
2023/07/08 06:00:31;;;;;;;6.05;3.55;;;;;;;18.27;100.00;101834.34;4966451;28;20042;-74
2023/07/08 06:03:17;;;;;;;5.63;3.65;;;;;;;18.49;99.41;101835.66;4987541;28;20050;-73
2023/07/08 06:06:05;;;;;;;5.20;3.58;;;;;;;18.69;98.20;101839.75;4974145;28;20164;-74
2023/07/08 06:08:51;;;;;;;6.32;3.53;;;;;;;18.96;97.65;101838.06;4986456;28;20038;-73
2023/07/08 06:11:37;;;;;;;4.07;3.25;;;;;;;19.21;96.63;101836.47;4978622;28;20069;-73
2023/07/08 06:14:23;;;;;;;4.45;3.10;;;;;;;19.42;95.47;101831.47;4988277;28;20041;-73
2023/07/08 06:17:09;;;;;;;4.40;3.15;;;;;;;19.65;94.34;101827.22;4987986;28;20044;-74
2023/07/08 06:19:55;;;;;;;5.32;2.92;;;;;;;19.89;93.69;101831.84;4972144;28;20109;-76
2023/07/08 06:22:41;;;;;;;5.32;2.90;;;;;;;20.10;93.32;101828.66;4985746;28;20050;-73
2023/07/08 06:25:27;;;;;;;4.45;3.20;;;;;;;20.31;91.97;101828.09;4983527;28;20061;-73
2023/07/08 06:28:13;;;;;;;3.65;2.78;;;;;;;20.54;90.84;101818.38;4987248;28;20038;-74
2023/07/08 06:30:59;;;;;;;3.58;3.00;;;;;;;20.76;90.22;101827.59;4987398;28;20041;-74
2023/07/08 06:33:44;;;;;;;5.43;2.78;;;;;;;20.91;89.35;101817.53;4988046;28;20038;-73
2023/07/08 06:36:33;;;;;;;5.43;2.75;;;;;;;21.07;88.95;101819.09;4976028;28;20052;-75
2023/07/08 06:39:19;;;;;;;5.47;3.10;;;;;;;21.30;87.93;101814.66;4986347;28;20046;-72
2023/07/08 06:42:06;;;;;;;3.08;2.75;;;;;;;21.47;86.98;101817.88;4987022;28;20092;-72
2023/07/08 06:44:51;;;;;;;2.95;2.42;;;;;;;21.63;85.98;101818.41;4987837;28;20061;-73
2023/07/08 06:47:38;;;;;;;2.78;2.42;;;;;;;21.77;84.49;101820.06;4986788;28;20046;-73
2023/07/08 06:50:23;;;;;;;3.33;2.80;;;;;;;21.89;83.52;101812.03;4985444;28;20066;-72
2023/07/08 06:53:09;;;;;;;5.50;2.63;;;;;;;22.03;83.12;101813.59;4986425;28;20473;-73
2023/07/08 06:55:55;;;;;;;2.88;2.50;;;;;;;22.16;82.50;101813.50;4987517;28;20161;-73
2023/07/08 06:58:41;;;;;;;6.50;2.80;;;;;;;22.21;82.44;101811.28;4987499;28;20141;-74
2023/07/08 07:01:26;;;;;;;3.00;2.40;;;;;;;22.35;81.83;101816.41;4985120;28;20784;-74
2023/07/08 07:04:12;;;;;;;3.63;2.88;;;;;;;22.51;80.43;101807.13;4973506;28;20041;-72
2023/07/08 07:06:58;;;;;;;2.58;2.30;;;;;;;22.68;79.34;101800.34;4970554;28;20338;-72
2023/07/08 07:09:44;;;;;;;3.65;2.70;;;;;;;22.85;79.37;101808.88;4987317;28;20492;-73
2023/07/08 07:12:30;;;;;;;3.08;2.33;;;;;;;23.08;78.42;101795.31;4985071;28;20045;-72
2023/07/08 07:15:16;;;;;;;4.18;2.47;;;;;;;23.26;77.40;101803.69;4984594;28;20041;-72
2023/07/08 07:18:02;;;;;;;3.60;2.55;;;;;;;23.39;76.48;101799.00;4985404;28;20034;-72
2023/07/08 07:20:53;;;;;;;3.88;2.38;;;;;;;23.43;72.46;101805.84;4986293;28;20065;-72
2023/07/08 07:23:39;;;;;;;3.97;2.53;;;;;;;23.53;74.25;101805.06;4987644;28;20033;-73
2023/07/08 07:26:25;;;;;;;2.72;2.40;;;;;;;23.64;74.44;101804.13;4957313;28;20125;-72
2023/07/08 07:29:11;;;;;;;2.47;2.22;;;;;;;23.78;73.12;101802.91;4974508;28;20157;-73
2023/07/08 07:31:57;;;;;;;6.55;2.90;;;;;;;23.87;73.45;101810.25;4972555;28;21961;-72
2023/07/08 07:34:45;;;;;;;4.05;2.53;;;;;;;23.96;72.80;101804.00;4974327;28;21144;-72
2023/07/08 07:37:31;;;;;;;3.17;2.40;;;;;;;24.07;72.26;101803.09;4974661;28;20128;-73
2023/07/08 07:40:17;;;;;;;3.00;2.47;;;;;;;24.13;71.17;101799.84;4973885;28;20114;-73
2023/07/08 07:43:03;;;;;;;3.25;2.47;;;;;;;24.11;71.05;101798.28;4957948;28;20435;-73
2023/07/08 07:45:52;;;;;;;3.70;2.50;;;;;;;24.11;69.56;101795.56;4974842;28;20030;-72
2023/07/08 07:48:39;;;;;;;3.65;2.80;;;;;;;24.14;69.97;101803.44;4978101;28;20079;-72
2023/07/08 07:51:25;;;;;;;5.25;2.70;;;;;;;24.26;70.31;101796.06;4975209;28;20038;-72
2023/07/08 07:54:10;;;;;;;3.95;2.78;;;;;;;24.38;70.39;101794.09;4955433;28;20982;-74
2023/07/08 07:56:56;;;;;;;4.47;2.65;;;;;;;24.51;70.22;101793.84;4971514;28;20038;-74
2023/07/08 07:59:42;;;;;;;2.55;2.20;;;;;;;24.59;68.78;101785.88;4977026;28;20061;-74
2023/07/08 08:02:28;;;;;;;4.85;2.30;;;;;;;24.67;68.36;101787.88;4979076;28;20552;-73
2023/07/08 08:05:14;;;;;;;2.97;2.15;;;;;;;24.67;67.38;101788.75;4977407;28;20038;-73
2023/07/08 08:08:00;;;;;;;2.67;2.08;;;;;;;24.78;67.63;101795.88;4962445;28;20060;-73
2023/07/08 08:10:46;;;;;;;3.90;2.58;;;;;;;24.92;66.83;101781.13;4978373;28;20049;-73
2023/07/08 08:13:31;;;;;;;3.35;2.50;;;;;;;24.97;66.26;101783.41;4978007;28;20047;-73
2023/07/08 08:16:17;;;;;;;4.47;2.47;;;;;;;25.11;66.47;101786.66;4961109;28;20061;-73
2023/07/08 08:19:03;;;;;;;3.20;2.50;;;;;;;25.21;65.95;101782.94;4977310;28;20121;-72
2023/07/08 08:21:51;;;;;;;4.47;2.40;;;;;;;25.33;66.03;101786.34;4975032;28;20046;-73
2023/07/08 08:24:37;;;;;;;3.65;2.60;;;;;;;25.48;65.16;101797.59;4974613;28;20062;-74
2023/07/08 08:27:23;;;;;;;3.95;2.30;;;;;;;25.56;64.94;101786.09;4984508;28;20535;-74
2023/07/08 08:30:09;;;;;;;4.22;2.78;;;;;;;25.65;64.68;101797.03;4989286;28;20685;-74
2023/07/08 08:32:54;;;;;;;4.28;2.67;;;;;;;25.80;64.67;101806.41;4988247;28;20042;-75
2023/07/08 08:35:42;;;;;;;3.65;2.33;;;;;;;25.83;63.97;101803.41;4988579;28;20052;-74
2023/07/08 08:38:28;;;;;;;3.95;2.40;;;;;;;25.94;64.86;101796.09;4964897;28;20164;-74
2023/07/08 08:41:16;;;;;;;3.00;2.22;;;;;;;26.11;64.93;101792.59;4985779;28;20511;-74
2023/07/08 08:44:04;;;;;;;3.42;2.40;;;;;;;26.20;64.13;101796.25;4985865;28;20545;-76
2023/07/08 08:46:58;;;;;;;2.60;2.20;;;;;;;26.28;62.29;101792.81;4985520;28;20042;-76
2023/07/08 08:49:48;;;;;;;3.05;2.45;;;;;;;26.32;63.07;101788.81;4971503;28;20405;-76
2023/07/08 08:52:35;;;;;;;3.50;2.22;;;;;;;26.44;63.64;101787.59;4976967;28;20076;-74
2023/07/08 08:55:25;;;;;;;3.67;2.20;;;;;;;26.55;63.14;101774.81;4960829;28;20113;-74
2023/07/08 08:58:13;;;;;;;3.22;2.40;;;;;;;26.66;63.19;101780.03;4987806;28;20042;-73
2023/07/08 09:01:02;;;;;;;2.58;2.20;;;;;;;26.75;62.47;101771.94;4975707;28;20785;-74
2023/07/08 09:03:53;;;;;;;2.88;2.55;;;;;;;26.83;62.42;101781.03;4986751;28;20040;-73
2023/07/08 09:06:40;;;;;;;3.58;2.50;;;;;;;26.79;62.78;101784.22;4989021;28;21138;-73
2023/07/08 09:09:33;;;;;;;2.50;2.10;;;;;;;26.84;62.08;101787.31;4986047;28;21768;-74
2023/07/08 09:12:22;;;;;;;2.40;2.15;;;;;;;27.01;62.56;101782.91;4970968;28;20057;-74
2023/07/08 09:15:15;;;;;;;3.65;2.40;;;;;;;27.18;61.38;101783.91;4988833;28;20057;-73
2023/07/08 09:18:12;;;;;;;3.13;2.40;;;;;;;27.26;60.19;101780.41;4985790;28;20042;-74
2023/07/08 09:21:01;;;;;;;3.97;2.67;;;;;;;27.35;60.83;101784.03;4979666;28;20042;-73
2023/07/08 09:23:50;;;;;;;3.08;2.63;;;;;;;27.38;60.20;101787.31;4970849;28;20031;-75
2023/07/08 09:26:36;;;;;;;3.90;2.53;;;;;;;27.49;60.09;101786.19;4984548;28;20107;-73
2023/07/08 09:29:21;;;;;;;4.18;2.50;;;;;;;27.68;60.91;101784.31;4972271;28;20404;-73
2023/07/08 09:32:22;;;;;;;2.85;2.10;;;;;;;27.87;57.24;101785.94;4984809;28;20042;-73
2023/07/08 09:35:12;;;;;;;3.00;2.25;;;;;;;27.98;58.93;101787.50;4987573;28;20041;-73
2023/07/08 09:38:07;;;;;;;3.35;2.35;;;;;;;28.01;56.48;101794.50;4976910;28;20045;-73
2023/07/08 09:40:55;;;;;;;2.20;2.00;;;;;;;28.08;57.29;101789.22;4987958;28;20034;-73
2023/07/08 09:43:42;;;;;;;3.78;2.33;;;;;;;28.14;56.78;101781.28;4987011;28;20098;-73
2023/07/08 09:46:27;;;;;;;3.85;2.35;;;;;;;28.11;55.98;101772.59;4987612;28;20072;-73
2023/07/08 09:49:13;;;;;;;2.72;2.22;;;;;;;28.17;55.61;101777.38;4989170;28;20297;-73
2023/07/08 09:52:00;;;;;;;2.58;2.30;;;;;;;28.18;55.28;101781.81;4985533;28;20034;-73
2023/07/08 09:54:47;;;;;;;4.53;2.78;;;;;;;28.28;54.57;101770.81;4975002;28;20182;-73
2023/07/08 09:57:33;;;;;;;4.72;2.88;;;;;;;28.32;54.30;101773.03;4988186;28;20076;-73
2023/07/08 10:00:28;;;;;;;3.60;2.22;;;;;;;28.37;52.21;101777.16;4990711;28;20495;-72
2023/07/08 10:03:31;;;;;;;2.90;2.60;;;;;;;28.39;53.26;101770.53;4973261;28;20045;-73
2023/07/08 10:06:24;;;;;;;2.78;2.30;;;;;;;28.40;52.31;101772.22;4986095;28;20140;-77
2023/07/08 10:09:18;;;;;;;2.78;2.15;;;;;;;28.29;53.95;101770.66;4987244;28;20029;-73
2023/07/08 10:12:08;;;;;;;3.88;2.58;;;;;;;28.27;53.88;101766.41;4975358;28;20042;-73
2023/07/08 10:15:00;;;;;;;5.18;2.55;;;;;;;28.13;53.47;101765.13;4976364;28;20046;-73
2023/07/08 10:17:46;;;;;;;3.25;2.80;;;;;;;28.12;54.38;101761.56;4974627;28;20053;-74
2023/07/08 10:20:57;;;;;;;3.83;2.75;;;;;;;28.17;53.59;101755.63;4985251;28;20571;-76
2023/07/08 10:24:02;;;;;;;2.85;2.50;;;;;;;28.15;53.19;101757.66;4985052;28;20029;-74
2023/07/08 10:26:53;;;;;;;4.25;2.75;;;;;;;28.08;54.16;101762.03;4972759;28;20050;-75
2023/07/08 10:30:05;;;;;;;2.88;2.60;;;;;;;28.15;52.10;101761.22;4963511;28;20042;-76
2023/07/08 10:33:14;;;;;;;3.25;2.30;;;;;;;28.22;53.18;101763.31;4975265;28;20109;-76
2023/07/08 10:36:36;;;;;;;3.70;2.28;;;;;;;28.27;54.10;101763.69;4984517;28;20545;-75
2023/07/08 10:39:43;;;;;;;7.93;2.77;;;;;;;28.31;53.86;101763.19;4984020;28;20041;-76
2023/07/08 10:42:53;;;;;;;2.40;2.20;;;;;;;28.40;53.67;101768.63;4974479;28;20305;-75
2023/07/08 10:46:07;;;;;;;4.18;2.90;;;;;;;28.49;54.05;101758.63;4984119;28;20095;-75
2023/07/08 10:49:15;;;;;;;5.25;2.60;;;;;;;28.59;53.99;101760.16;4973343;28;20052;-76
2023/07/08 10:52:38;;;;;;;3.35;2.70;;;;;;;28.62;53.14;101755.41;4983568;28;20209;-75
2023/07/08 10:55:39;;;;;;;3.05;2.58;;;;;;;28.70;53.96;101750.00;4981019;28;20136;-74
2023/07/08 10:58:51;;;;;;;3.13;2.45;;;;;;;28.80;52.37;101755.28;4967370;28;20100;-75
2023/07/08 11:02:01;;;;;;;4.88;2.67;;;;;;;28.86;52.25;101752.75;4981398;28;20580;-76
2023/07/08 11:05:05;;;;;;;2.90;2.60;;;;;;;28.89;52.27;101753.41;4981336;28;20049;-75
2023/07/08 11:08:00;;;;;;;3.28;2.40;;;;;;;28.99;52.52;101743.22;4967661;28;20041;-75
2023/07/08 11:10:46;;;;;;;4.18;2.80;;;;;;;29.05;53.66;101756.16;4971440;28;20045;-75
2023/07/08 11:13:35;;;;;;;2.83;2.60;;;;;;;29.14;52.85;101757.84;4983201;28;20033;-74
2023/07/08 11:16:27;;;;;;;3.58;2.63;;;;;;;29.20;52.64;101750.84;4980368;28;20072;-75
2023/07/08 11:19:21;;;;;;;2.65;2.35;;;;;;;29.30;51.58;101750.66;4971017;28;20120;-75
2023/07/08 11:22:11;;;;;;;4.28;2.95;;;;;;;29.32;51.20;101745.91;4971438;28;20130;-75
2023/07/08 11:24:59;;;;;;;3.67;2.60;;;;;;;29.36;51.47;101744.53;4984202;28;20049;-76
2023/07/08 11:27:45;;;;;;;3.10;2.70;;;;;;;29.42;51.46;101741.09;4981927;28;20148;-75
2023/07/08 11:30:34;;;;;;;2.92;2.45;;;;;;;29.46;50.73;101738.03;4973322;28;20111;-74
2023/07/08 11:33:24;;;;;;;3.17;2.70;;;;;;;29.50;50.25;101733.94;4983391;28;20052;-74
2023/07/08 11:36:11;;;;;;;3.83;2.47;;;;;;;29.52;50.55;101731.94;4970567;28;20042;-76
2023/07/08 11:39:00;;;;;;;2.65;2.30;;;;;;;29.55;50.88;101731.56;4983515;28;20029;-74
2023/07/08 11:41:46;;;;;;;3.92;2.90;;;;;;;29.58;49.94;101731.22;4982192;28;20485;-73
2023/07/08 11:44:33;;;;;;;3.45;2.38;;;;;;;29.59;50.01;101730.19;4969442;28;20180;-75
2023/07/08 11:47:26;;;;;;;4.07;3.00;;;;;;;29.63;49.34;101727.97;4981378;28;20801;-74
2023/07/08 11:50:22;;;;;;;3.50;2.65;;;;;;;29.65;48.24;101717.72;4958445;28;20070;-75
2023/07/08 11:53:10;;;;;;;4.80;3.30;;;;;;;29.71;49.84;101713.44;4967116;28;20030;-74
2023/07/08 11:56:00;;;;;;;3.90;2.83;;;;;;;29.75;49.48;101712.06;4983507;28;20121;-74
2023/07/08 11:58:49;;;;;;;3.40;3.03;;;;;;;29.80;48.97;101713.22;4982547;28;20122;-74
2023/07/08 12:01:41;;;;;;;4.10;2.80;;;;;;;29.86;48.69;101710.81;4982294;28;20034;-74
2023/07/08 12:04:33;;;;;;;3.10;2.65;;;;;;;29.90;48.19;101707.56;4967352;28;20118;-73
2023/07/08 12:07:43;;;;;;;4.82;2.88;;;;;;;29.97;47.63;101704.97;4984044;28;20030;-74
2023/07/08 12:10:34;;;;;;;4.80;3.22;;;;;;;30.01;48.31;101709.03;4982206;28;20034;-75
2023/07/08 12:13:23;;;;;;;3.53;2.65;;;;;;;30.06;47.72;101711.25;4970780;28;20102;-74
2023/07/08 12:16:13;;;;;;;3.50;2.97;;;;;;;30.13;48.42;101708.66;4978847;28;20579;-75
2023/07/08 12:19:00;;;;;;;3.35;2.88;;;;;;;30.21;48.75;101704.03;4982788;28;21966;-73
2023/07/08 12:21:46;;;;;;;4.43;3.05;;;;;;;30.25;48.73;101698.19;4966000;28;20571;-75
2023/07/08 12:24:32;;;;;;;4.60;2.60;;;;;;;30.31;48.24;101703.78;4980857;28;20710;-74
2023/07/08 12:27:21;;;;;;;3.40;2.63;;;;;;;30.39;47.78;101700.13;4979489;28;20050;-75
2023/07/08 12:30:10;;;;;;;3.33;2.50;;;;;;;30.41;48.00;101697.22;4963966;28;20033;-76
2023/07/08 12:32:59;;;;;;;2.83;2.50;;;;;;;30.46;47.59;101692.91;4968372;28;20046;-75
2023/07/08 12:35:45;;;;;;;3.53;2.65;;;;;;;30.53;47.03;101689.44;4979094;28;20050;-74
2023/07/08 12:38:34;;;;;;;4.53;2.97;;;;;;;30.47;46.59;101686.44;4982111;28;20038;-75
2023/07/08 12:41:24;;;;;;;3.05;2.75;;;;;;;30.49;45.99;101692.56;4983411;28;20494;-75
2023/07/08 12:44:24;;;;;;;3.20;2.90;;;;;;;30.55;45.84;101695.59;4984146;28;20909;-75
2023/07/08 12:47:10;;;;;;;3.30;2.92;;;;;;;30.62;47.18;101688.38;4984030;28;20108;-76
2023/07/08 12:49:56;;;;;;;4.00;2.78;;;;;;;30.66;47.54;101694.31;4980147;28;20282;-77
2023/07/08 12:52:46;;;;;;;3.47;2.75;;;;;;;30.74;46.99;101699.75;4968885;28;21211;-75
2023/07/08 12:55:32;;;;;;;3.75;2.92;;;;;;;30.79;47.90;101694.56;4980680;28;20441;-75
2023/07/08 12:58:28;;;;;;;3.85;2.90;;;;;;;30.84;45.98;101702.22;4971290;28;20511;-76
2023/07/08 13:01:20;;;;;;;3.38;2.88;;;;;;;30.89;46.62;101688.84;4968915;28;20045;-77
2023/07/08 13:04:10;;;;;;;5.05;2.58;;;;;;;30.91;46.88;101686.78;4959180;28;20584;-77